sensor_id;sensor_type;location;lat;lon;timestamp;temperature;humidity
28767;DHT22;15921;52.034;20.650;2024-02-15T00:00:52;6.30;94.60
28767;DHT22;15921;52.034;20.650;2024-02-15T00:03:18;6.30;94.70
28767;DHT22;15921;52.034;20.650;2024-02-15T00:05:45;6.30;95.00
28767;DHT22;15921;52.034;20.650;2024-02-15T00:08:11;6.30;95.10
28767;DHT22;15921;52.034;20.650;2024-02-15T00:10:37;6.30;95.10
28767;DHT22;15921;52.034;20.650;2024-02-15T00:13:03;6.20;95.10
28767;DHT22;15921;52.034;20.650;2024-02-15T00:15:31;6.20;95.40
28767;DHT22;15921;52.034;20.650;2024-02-15T00:17:57;6.20;95.40
28767;DHT22;15921;52.034;20.650;2024-02-15T00:20:23;6.20;95.60
28767;DHT22;15921;52.034;20.650;2024-02-15T00:22:48;6.20;95.40
28767;DHT22;15921;52.034;20.650;2024-02-15T00:25:15;6.20;95.70
28767;DHT22;15921;52.034;20.650;2024-02-15T00:27:42;6.20;95.70
28767;DHT22;15921;52.034;20.650;2024-02-15T00:30:08;6.20;95.50
28767;DHT22;15921;52.034;20.650;2024-02-15T00:32:34;6.20;95.80
28767;DHT22;15921;52.034;20.650;2024-02-15T00:35:02;6.20;95.90
28767;DHT22;15921;52.034;20.650;2024-02-15T00:37:31;6.10;96.20
28767;DHT22;15921;52.034;20.650;2024-02-15T00:39:57;6.20;96.50
28767;DHT22;15921;52.034;20.650;2024-02-15T00:42:23;6.10;96.40
28767;DHT22;15921;52.034;20.650;2024-02-15T00:44:48;6.20;96.50
28767;DHT22;15921;52.034;20.650;2024-02-15T00:47:15;6.10;96.60
28767;DHT22;15921;52.034;20.650;2024-02-15T00:49:43;6.20;96.90
28767;DHT22;15921;52.034;20.650;2024-02-15T00:52:10;6.20;96.70
28767;DHT22;15921;52.034;20.650;2024-02-15T00:54:35;6.20;96.80
28767;DHT22;15921;52.034;20.650;2024-02-15T00:57:01;6.10;96.60
28767;DHT22;15921;52.034;20.650;2024-02-15T00:59:27;6.10;97.00
28767;DHT22;15921;52.034;20.650;2024-02-15T01:01:52;6.20;97.20
28767;DHT22;15921;52.034;20.650;2024-02-15T01:04:19;6.20;97.00
28767;DHT22;15921;52.034;20.650;2024-02-15T01:06:44;6.10;96.80
28767;DHT22;15921;52.034;20.650;2024-02-15T01:09:11;6.10;96.90
28767;DHT22;15921;52.034;20.650;2024-02-15T01:11:38;6.20;97.10
28767;DHT22;15921;52.034;20.650;2024-02-15T01:14:04;6.20;96.90
28767;DHT22;15921;52.034;20.650;2024-02-15T01:16:29;6.20;97.10
28767;DHT22;15921;52.034;20.650;2024-02-15T01:18:56;6.20;97.10
28767;DHT22;15921;52.034;20.650;2024-02-15T01:21:22;6.10;97.20
28767;DHT22;15921;52.034;20.650;2024-02-15T01:23:48;6.10;97.10
28767;DHT22;15921;52.034;20.650;2024-02-15T01:26:13;6.10;97.50
28767;DHT22;15921;52.034;20.650;2024-02-15T01:28:40;6.10;97.70
28767;DHT22;15921;52.034;20.650;2024-02-15T01:31:09;6.10;97.60
28767;DHT22;15921;52.034;20.650;2024-02-15T01:33:36;6.00;97.30
28767;DHT22;15921;52.034;20.650;2024-02-15T01:36:03;6.10;97.30
28767;DHT22;15921;52.034;20.650;2024-02-15T01:38:29;6.10;97.60
28767;DHT22;15921;52.034;20.650;2024-02-15T01:40:55;6.10;97.60
28767;DHT22;15921;52.034;20.650;2024-02-15T01:43:21;6.10;97.50
28767;DHT22;15921;52.034;20.650;2024-02-15T01:45:46;6.10;97.50
28767;DHT22;15921;52.034;20.650;2024-02-15T01:48:15;6.10;97.60
28767;DHT22;15921;52.034;20.650;2024-02-15T01:50:41;6.20;97.60
28767;DHT22;15921;52.034;20.650;2024-02-15T01:53:09;6.10;97.30
28767;DHT22;15921;52.034;20.650;2024-02-15T01:55:37;6.10;97.50
28767;DHT22;15921;52.034;20.650;2024-02-15T01:58:03;6.20;97.60
28767;DHT22;15921;52.034;20.650;2024-02-15T02:00:30;6.10;97.60
28767;DHT22;15921;52.034;20.650;2024-02-15T02:02:57;6.10;97.60
28767;DHT22;15921;52.034;20.650;2024-02-15T02:05:28;6.10;97.50
28767;DHT22;15921;52.034;20.650;2024-02-15T02:07:55;6.10;97.70
28767;DHT22;15921;52.034;20.650;2024-02-15T02:10:25;6.00;97.70
28767;DHT22;15921;52.034;20.650;2024-02-15T02:12:52;6.00;97.60
28767;DHT22;15921;52.034;20.650;2024-02-15T02:15:19;6.10;97.60
28767;DHT22;15921;52.034;20.650;2024-02-15T02:17:51;6.10;97.80
28767;DHT22;15921;52.034;20.650;2024-02-15T02:20:17;6.10;97.50
28767;DHT22;15921;52.034;20.650;2024-02-15T02:22:46;6.10;97.50
28767;DHT22;15921;52.034;20.650;2024-02-15T02:25:13;6.20;97.70
28767;DHT22;15921;52.034;20.650;2024-02-15T02:27:39;6.20;97.30
28767;DHT22;15921;52.034;20.650;2024-02-15T02:30:15;6.20;97.10
28767;DHT22;15921;52.034;20.650;2024-02-15T02:32:45;6.30;97.10
28767;DHT22;15921;52.034;20.650;2024-02-15T02:35:11;6.30;97.10
28767;DHT22;15921;52.034;20.650;2024-02-15T02:37:41;6.30;97.20
28767;DHT22;15921;52.034;20.650;2024-02-15T02:40:09;6.30;97.00
28767;DHT22;15921;52.034;20.650;2024-02-15T02:42:54;6.40;96.90
28767;DHT22;15921;52.034;20.650;2024-02-15T02:45:40;6.40;96.90
28767;DHT22;15921;52.034;20.650;2024-02-15T02:48:07;6.40;96.90
28767;DHT22;15921;52.034;20.650;2024-02-15T02:50:32;6.40;97.00
28767;DHT22;15921;52.034;20.650;2024-02-15T02:52:58;6.40;97.30
28767;DHT22;15921;52.034;20.650;2024-02-15T02:55:24;6.40;97.30
28767;DHT22;15921;52.034;20.650;2024-02-15T02:57:52;6.40;97.60
28767;DHT22;15921;52.034;20.650;2024-02-15T03:00:20;6.30;97.90
28767;DHT22;15921;52.034;20.650;2024-02-15T03:02:47;6.30;98.30
28767;DHT22;15921;52.034;20.650;2024-02-15T03:05:13;6.30;98.70
28767;DHT22;15921;52.034;20.650;2024-02-15T03:07:40;6.30;99.00
28767;DHT22;15921;52.034;20.650;2024-02-15T03:10:06;6.30;99.30
28767;DHT22;15921;52.034;20.650;2024-02-15T03:12:35;6.30;99.40
28767;DHT22;15921;52.034;20.650;2024-02-15T03:15:07;6.30;99.90
28767;DHT22;15921;52.034;20.650;2024-02-15T03:17:45;6.30;99.90
28767;DHT22;15921;52.034;20.650;2024-02-15T03:20:11;6.30;99.90
28767;DHT22;15921;52.034;20.650;2024-02-15T03:22:38;6.30;99.90
28767;DHT22;15921;52.034;20.650;2024-02-15T03:25:05;6.30;99.90
28767;DHT22;15921;52.034;20.650;2024-02-15T03:27:36;6.30;99.90
28767;DHT22;15921;52.034;20.650;2024-02-15T03:30:03;6.20;99.90
28767;DHT22;15921;52.034;20.650;2024-02-15T03:32:30;6.20;99.90
28767;DHT22;15921;52.034;20.650;2024-02-15T03:34:55;6.10;99.90
28767;DHT22;15921;52.034;20.650;2024-02-15T03:37:21;6.20;99.90
28767;DHT22;15921;52.034;20.650;2024-02-15T03:39:47;6.10;99.90
28767;DHT22;15921;52.034;20.650;2024-02-15T03:42:13;6.10;99.90
28767;DHT22;15921;52.034;20.650;2024-02-15T03:44:39;6.10;99.90
28767;DHT22;15921;52.034;20.650;2024-02-15T03:47:06;6.10;99.90
28767;DHT22;15921;52.034;20.650;2024-02-15T03:49:32;6.10;99.90
28767;DHT22;15921;52.034;20.650;2024-02-15T03:51:58;6.10;99.90
28767;DHT22;15921;52.034;20.650;2024-02-15T03:54:28;6.10;99.90
28767;DHT22;15921;52.034;20.650;2024-02-15T03:56:56;6.10;99.90
28767;DHT22;15921;52.034;20.650;2024-02-15T03:59:23;6.10;99.90
28767;DHT22;15921;52.034;20.650;2024-02-15T04:01:55;6.10;99.90
28767;DHT22;15921;52.034;20.650;2024-02-15T04:04:22;6.10;99.90
28767;DHT22;15921;52.034;20.650;2024-02-15T04:06:52;6.10;99.90
28767;DHT22;15921;52.034;20.650;2024-02-15T04:09:18;6.10;99.90
28767;DHT22;15921;52.034;20.650;2024-02-15T04:11:46;6.10;99.90
28767;DHT22;15921;52.034;20.650;2024-02-15T04:14:16;6.10;99.90
28767;DHT22;15921;52.034;20.650;2024-02-15T04:16:44;6.10;99.90
28767;DHT22;15921;52.034;20.650;2024-02-15T04:19:10;6.10;99.90
28767;DHT22;15921;52.034;20.650;2024-02-15T04:21:36;6.10;99.90
28767;DHT22;15921;52.034;20.650;2024-02-15T04:24:03;6.10;99.90
28767;DHT22;15921;52.034;20.650;2024-02-15T04:26:28;6.20;99.90
28767;DHT22;15921;52.034;20.650;2024-02-15T04:28:56;6.20;99.90
28767;DHT22;15921;52.034;20.650;2024-02-15T04:31:22;6.20;99.90
28767;DHT22;15921;52.034;20.650;2024-02-15T04:33:53;6.20;99.90
28767;DHT22;15921;52.034;20.650;2024-02-15T04:36:19;6.20;99.90
28767;DHT22;15921;52.034;20.650;2024-02-15T04:38:49;6.20;99.90
28767;DHT22;15921;52.034;20.650;2024-02-15T04:41:16;6.20;99.90
28767;DHT22;15921;52.034;20.650;2024-02-15T04:43:51;6.10;99.90
28767;DHT22;15921;52.034;20.650;2024-02-15T04:46:18;6.10;99.90
28767;DHT22;15921;52.034;20.650;2024-02-15T04:48:47;6.10;99.90
28767;DHT22;15921;52.034;20.650;2024-02-15T04:51:15;6.10;99.90
28767;DHT22;15921;52.034;20.650;2024-02-15T04:53:42;6.00;99.90
28767;DHT22;15921;52.034;20.650;2024-02-15T04:56:08;6.00;99.90
28767;DHT22;15921;52.034;20.650;2024-02-15T04:58:42;6.00;99.90
28767;DHT22;15921;52.034;20.650;2024-02-15T05:01:16;6.00;99.90
28767;DHT22;15921;52.034;20.650;2024-02-15T05:03:45;6.00;99.90
28767;DHT22;15921;52.034;20.650;2024-02-15T05:06:11;6.00;99.90
28767;DHT22;15921;52.034;20.650;2024-02-15T05:08:40;6.00;99.90
28767;DHT22;15921;52.034;20.650;2024-02-15T05:11:12;6.00;99.90
28767;DHT22;15921;52.034;20.650;2024-02-15T05:13:46;6.00;99.90
28767;DHT22;15921;52.034;20.650;2024-02-15T05:16:12;6.00;99.90
28767;DHT22;15921;52.034;20.650;2024-02-15T05:18:38;6.10;99.90
28767;DHT22;15921;52.034;20.650;2024-02-15T05:21:06;6.10;99.90
28767;DHT22;15921;52.034;20.650;2024-02-15T05:23:36;6.00;99.90
28767;DHT22;15921;52.034;20.650;2024-02-15T05:26:03;6.10;99.90
28767;DHT22;15921;52.034;20.650;2024-02-15T05:28:29;6.10;99.90
28767;DHT22;15921;52.034;20.650;2024-02-15T05:31:12;6.10;99.90
28767;DHT22;15921;52.034;20.650;2024-02-15T05:33:38;6.10;99.90
28767;DHT22;15921;52.034;20.650;2024-02-15T05:36:10;6.10;99.90
28767;DHT22;15921;52.034;20.650;2024-02-15T05:38:36;6.10;99.90
28767;DHT22;15921;52.034;20.650;2024-02-15T05:41:02;6.10;99.90
28767;DHT22;15921;52.034;20.650;2024-02-15T05:43:28;6.20;99.90
28767;DHT22;15921;52.034;20.650;2024-02-15T05:45:55;6.20;99.90
28767;DHT22;15921;52.034;20.650;2024-02-15T05:48:23;6.10;99.90
28767;DHT22;15921;52.034;20.650;2024-02-15T05:50:49;6.10;99.90
28767;DHT22;15921;52.034;20.650;2024-02-15T05:53:14;6.00;99.90
28767;DHT22;15921;52.034;20.650;2024-02-15T05:55:40;6.00;99.90
28767;DHT22;15921;52.034;20.650;2024-02-15T05:58:09;6.00;99.90
28767;DHT22;15921;52.034;20.650;2024-02-15T06:00:37;6.10;99.90
28767;DHT22;15921;52.034;20.650;2024-02-15T06:03:04;6.10;99.90
28767;DHT22;15921;52.034;20.650;2024-02-15T06:05:31;6.10;99.90
28767;DHT22;15921;52.034;20.650;2024-02-15T06:08:00;6.00;99.90
28767;DHT22;15921;52.034;20.650;2024-02-15T06:10:26;5.90;99.90
28767;DHT22;15921;52.034;20.650;2024-02-15T06:12:52;6.00;99.90
28767;DHT22;15921;52.034;20.650;2024-02-15T06:15:18;6.00;99.90
28767;DHT22;15921;52.034;20.650;2024-02-15T06:17:44;6.00;99.90
28767;DHT22;15921;52.034;20.650;2024-02-15T06:20:13;6.00;99.90
28767;DHT22;15921;52.034;20.650;2024-02-15T06:22:47;6.00;99.90
28767;DHT22;15921;52.034;20.650;2024-02-15T06:25:13;6.00;99.90
28767;DHT22;15921;52.034;20.650;2024-02-15T06:27:40;6.00;99.90
28767;DHT22;15921;52.034;20.650;2024-02-15T06:30:12;6.00;99.90
28767;DHT22;15921;52.034;20.650;2024-02-15T06:32:57;5.90;99.90
28767;DHT22;15921;52.034;20.650;2024-02-15T06:35:42;5.90;99.90
28767;DHT22;15921;52.034;20.650;2024-02-15T06:38:26;5.90;99.90
28767;DHT22;15921;52.034;20.650;2024-02-15T06:41:11;5.90;99.90
28767;DHT22;15921;52.034;20.650;2024-02-15T06:43:37;6.00;99.90
28767;DHT22;15921;52.034;20.650;2024-02-15T06:46:06;6.00;99.90
28767;DHT22;15921;52.034;20.650;2024-02-15T06:48:32;6.00;99.90
28767;DHT22;15921;52.034;20.650;2024-02-15T06:50:58;6.10;99.90
28767;DHT22;15921;52.034;20.650;2024-02-15T06:53:24;6.10;99.90
28767;DHT22;15921;52.034;20.650;2024-02-15T06:55:50;6.10;99.90
28767;DHT22;15921;52.034;20.650;2024-02-15T06:58:16;6.10;99.90
28767;DHT22;15921;52.034;20.650;2024-02-15T07:00:43;6.10;99.90
28767;DHT22;15921;52.034;20.650;2024-02-15T07:03:09;6.10;99.90
28767;DHT22;15921;52.034;20.650;2024-02-15T07:05:36;6.20;99.90
28767;DHT22;15921;52.034;20.650;2024-02-15T07:08:05;6.20;99.90
28767;DHT22;15921;52.034;20.650;2024-02-15T07:10:31;6.20;99.90
28767;DHT22;15921;52.034;20.650;2024-02-15T07:12:57;6.30;99.90
28767;DHT22;15921;52.034;20.650;2024-02-15T07:15:23;6.40;99.90
28767;DHT22;15921;52.034;20.650;2024-02-15T07:17:48;6.40;99.90
28767;DHT22;15921;52.034;20.650;2024-02-15T07:20:16;6.40;99.90
28767;DHT22;15921;52.034;20.650;2024-02-15T07:22:45;6.40;99.90
28767;DHT22;15921;52.034;20.650;2024-02-15T07:25:11;6.50;99.90
28767;DHT22;15921;52.034;20.650;2024-02-15T07:27:37;6.60;99.90
28767;DHT22;15921;52.034;20.650;2024-02-15T07:30:04;6.60;99.90
28767;DHT22;15921;52.034;20.650;2024-02-15T07:32:31;6.80;99.90
28767;DHT22;15921;52.034;20.650;2024-02-15T07:35:01;6.80;99.90
28767;DHT22;15921;52.034;20.650;2024-02-15T07:37:26;6.90;99.90
28767;DHT22;15921;52.034;20.650;2024-02-15T07:39:52;7.00;99.90
28767;DHT22;15921;52.034;20.650;2024-02-15T07:42:18;7.00;99.90
28767;DHT22;15921;52.034;20.650;2024-02-15T07:44:44;7.10;99.90
28767;DHT22;15921;52.034;20.650;2024-02-15T07:47:10;7.20;99.90
28767;DHT22;15921;52.034;20.650;2024-02-15T07:49:39;7.30;99.90
28767;DHT22;15921;52.034;20.650;2024-02-15T07:52:05;7.30;99.90
28767;DHT22;15921;52.034;20.650;2024-02-15T07:54:30;7.40;99.90
28767;DHT22;15921;52.034;20.650;2024-02-15T07:56:58;7.60;99.90
28767;DHT22;15921;52.034;20.650;2024-02-15T07:59:24;7.80;99.90
28767;DHT22;15921;52.034;20.650;2024-02-15T08:01:50;7.90;99.90
28767;DHT22;15921;52.034;20.650;2024-02-15T08:04:16;7.90;99.90
28767;DHT22;15921;52.034;20.650;2024-02-15T08:06:46;8.00;99.90
28767;DHT22;15921;52.034;20.650;2024-02-15T08:09:15;8.10;99.90
28767;DHT22;15921;52.034;20.650;2024-02-15T08:11:43;8.20;99.90
28767;DHT22;15921;52.034;20.650;2024-02-15T08:14:09;8.20;99.90
28767;DHT22;15921;52.034;20.650;2024-02-15T08:16:37;8.20;99.90
28767;DHT22;15921;52.034;20.650;2024-02-15T08:19:06;8.30;99.90
28767;DHT22;15921;52.034;20.650;2024-02-15T08:21:33;8.40;99.90
28767;DHT22;15921;52.034;20.650;2024-02-15T08:24:01;8.40;99.90
28767;DHT22;15921;52.034;20.650;2024-02-15T08:26:36;8.30;99.90
28767;DHT22;15921;52.034;20.650;2024-02-15T08:29:03;8.40;99.90
28767;DHT22;15921;52.034;20.650;2024-02-15T08:31:29;8.50;99.90
28767;DHT22;15921;52.034;20.650;2024-02-15T08:34:00;8.50;99.90
28767;DHT22;15921;52.034;20.650;2024-02-15T08:36:27;8.40;99.90
28767;DHT22;15921;52.034;20.650;2024-02-15T08:38:52;8.30;99.90
28767;DHT22;15921;52.034;20.650;2024-02-15T08:41:19;8.30;99.90
28767;DHT22;15921;52.034;20.650;2024-02-15T08:43:46;8.30;99.90
28767;DHT22;15921;52.034;20.650;2024-02-15T08:46:14;8.40;99.90
28767;DHT22;15921;52.034;20.650;2024-02-15T08:48:40;8.40;99.90
28767;DHT22;15921;52.034;20.650;2024-02-15T08:51:06;8.30;99.90
28767;DHT22;15921;52.034;20.650;2024-02-15T08:53:34;8.40;99.90
28767;DHT22;15921;52.034;20.650;2024-02-15T08:56:02;8.60;99.90
28767;DHT22;15921;52.034;20.650;2024-02-15T08:58:28;8.70;99.90
28767;DHT22;15921;52.034;20.650;2024-02-15T09:00:56;8.90;99.90
28767;DHT22;15921;52.034;20.650;2024-02-15T09:03:21;9.00;99.90
28767;DHT22;15921;52.034;20.650;2024-02-15T09:05:47;9.00;99.90
28767;DHT22;15921;52.034;20.650;2024-02-15T09:08:13;9.00;99.90
28767;DHT22;15921;52.034;20.650;2024-02-15T09:10:41;9.00;99.90
28767;DHT22;15921;52.034;20.650;2024-02-15T09:13:08;9.00;99.90
28767;DHT22;15921;52.034;20.650;2024-02-15T09:15:34;9.10;99.90
28767;DHT22;15921;52.034;20.650;2024-02-15T09:18:01;9.20;99.90
28767;DHT22;15921;52.034;20.650;2024-02-15T09:20:27;9.20;99.90
28767;DHT22;15921;52.034;20.650;2024-02-15T09:22:54;9.20;99.90
28767;DHT22;15921;52.034;20.650;2024-02-15T09:25:28;9.20;99.90
28767;DHT22;15921;52.034;20.650;2024-02-15T09:27:54;9.10;99.90
28767;DHT22;15921;52.034;20.650;2024-02-15T09:30:19;9.00;99.90
28767;DHT22;15921;52.034;20.650;2024-02-15T09:32:45;8.90;99.90
28767;DHT22;15921;52.034;20.650;2024-02-15T09:35:12;8.90;99.90
28767;DHT22;15921;52.034;20.650;2024-02-15T09:37:45;9.00;99.90
28767;DHT22;15921;52.034;20.650;2024-02-15T09:40:12;9.10;99.90
28767;DHT22;15921;52.034;20.650;2024-02-15T09:42:40;9.30;99.90
28767;DHT22;15921;52.034;20.650;2024-02-15T09:45:07;9.30;99.90
28767;DHT22;15921;52.034;20.650;2024-02-15T09:47:37;9.30;99.90
28767;DHT22;15921;52.034;20.650;2024-02-15T09:50:14;9.30;99.90
28767;DHT22;15921;52.034;20.650;2024-02-15T09:52:43;9.30;99.90
28767;DHT22;15921;52.034;20.650;2024-02-15T09:55:09;9.30;99.90
28767;DHT22;15921;52.034;20.650;2024-02-15T09:57:39;9.40;99.90
28767;DHT22;15921;52.034;20.650;2024-02-15T10:00:05;9.40;99.90
28767;DHT22;15921;52.034;20.650;2024-02-15T10:02:35;9.50;99.90
28767;DHT22;15921;52.034;20.650;2024-02-15T10:05:02;9.60;99.90
28767;DHT22;15921;52.034;20.650;2024-02-15T10:07:28;9.70;99.90
28767;DHT22;15921;52.034;20.650;2024-02-15T10:09:54;9.70;99.90
28767;DHT22;15921;52.034;20.650;2024-02-15T10:12:20;9.70;99.90
28767;DHT22;15921;52.034;20.650;2024-02-15T10:14:52;9.80;99.90
28767;DHT22;15921;52.034;20.650;2024-02-15T10:17:19;10.00;99.90
28767;DHT22;15921;52.034;20.650;2024-02-15T10:20:02;10.10;99.90
28767;DHT22;15921;52.034;20.650;2024-02-15T10:22:28;10.30;99.90
28767;DHT22;15921;52.034;20.650;2024-02-15T10:25:13;10.40;99.90
28767;DHT22;15921;52.034;20.650;2024-02-15T10:27:42;10.70;99.90
28767;DHT22;15921;52.034;20.650;2024-02-15T10:30:15;10.80;99.90
28767;DHT22;15921;52.034;20.650;2024-02-15T10:32:41;10.90;99.90
28767;DHT22;15921;52.034;20.650;2024-02-15T10:35:07;11.10;99.90
28767;DHT22;15921;52.034;20.650;2024-02-15T10:37:33;11.20;99.90
28767;DHT22;15921;52.034;20.650;2024-02-15T10:40:05;11.40;99.90
28767;DHT22;15921;52.034;20.650;2024-02-15T10:42:33;11.40;99.90
28767;DHT22;15921;52.034;20.650;2024-02-15T10:45:05;11.60;99.90
28767;DHT22;15921;52.034;20.650;2024-02-15T10:47:37;11.80;99.90
28767;DHT22;15921;52.034;20.650;2024-02-15T10:50:03;11.80;99.90
28767;DHT22;15921;52.034;20.650;2024-02-15T10:52:32;11.90;99.90
28767;DHT22;15921;52.034;20.650;2024-02-15T10:55:04;11.80;99.90
28767;DHT22;15921;52.034;20.650;2024-02-15T10:57:37;11.90;99.90
28767;DHT22;15921;52.034;20.650;2024-02-15T11:00:06;11.90;99.90
28767;DHT22;15921;52.034;20.650;2024-02-15T11:02:45;12.00;99.90
28767;DHT22;15921;52.034;20.650;2024-02-15T11:05:14;12.10;99.90
28767;DHT22;15921;52.034;20.650;2024-02-15T11:07:46;12.10;99.90
28767;DHT22;15921;52.034;20.650;2024-02-15T11:10:12;12.10;99.90
28767;DHT22;15921;52.034;20.650;2024-02-15T11:12:42;12.10;99.90
28767;DHT22;15921;52.034;20.650;2024-02-15T11:15:09;12.30;99.90
28767;DHT22;15921;52.034;20.650;2024-02-15T11:20:03;12.50;99.90
28767;DHT22;15921;52.034;20.650;2024-02-15T11:22:34;12.60;99.90
28767;DHT22;15921;52.034;20.650;2024-02-15T11:25:06;12.60;99.90
28767;DHT22;15921;52.034;20.650;2024-02-15T11:27:36;12.70;99.50
28767;DHT22;15921;52.034;20.650;2024-02-15T11:30:05;12.90;98.60
28767;DHT22;15921;52.034;20.650;2024-02-15T11:32:49;13.00;98.00
28767;DHT22;15921;52.034;20.650;2024-02-15T11:35:16;13.20;97.20
28767;DHT22;15921;52.034;20.650;2024-02-15T11:42:53;13.10;95.90
28767;DHT22;15921;52.034;20.650;2024-02-15T11:45:20;13.20;95.60
28767;DHT22;15921;52.034;20.650;2024-02-15T11:47:50;13.00;95.50
28767;DHT22;15921;52.034;20.650;2024-02-15T11:50:18;13.00;95.60
28767;DHT22;15921;52.034;20.650;2024-02-15T11:52:44;12.90;95.60
28767;DHT22;15921;52.034;20.650;2024-02-15T11:55:12;12.90;95.20
28767;DHT22;15921;52.034;20.650;2024-02-15T11:57:42;12.80;95.60
28767;DHT22;15921;52.034;20.650;2024-02-15T12:00:25;12.90;95.80
28767;DHT22;15921;52.034;20.650;2024-02-15T12:03:09;13.00;95.30
28767;DHT22;15921;52.034;20.650;2024-02-15T12:05:57;12.90;95.20
28767;DHT22;15921;52.034;20.650;2024-02-15T12:08:44;12.80;95.20
28767;DHT22;15921;52.034;20.650;2024-02-15T12:11:29;12.70;95.80
28767;DHT22;15921;52.034;20.650;2024-02-15T12:14:15;12.70;96.40
28767;DHT22;15921;52.034;20.650;2024-02-15T12:17:03;12.70;96.40
28767;DHT22;15921;52.034;20.650;2024-02-15T12:19:53;12.80;96.60
28767;DHT22;15921;52.034;20.650;2024-02-15T12:24:55;13.10;96.50
28767;DHT22;15921;52.034;20.650;2024-02-15T12:27:21;13.20;95.90
28767;DHT22;15921;52.034;20.650;2024-02-15T12:30:06;13.30;95.60
28767;DHT22;15921;52.034;20.650;2024-02-15T12:32:33;13.10;95.60
28767;DHT22;15921;52.034;20.650;2024-02-15T12:35:12;13.00;95.80
28767;DHT22;15921;52.034;20.650;2024-02-15T12:37:43;12.90;96.10
28767;DHT22;15921;52.034;20.650;2024-02-15T12:40:18;12.90;96.40
28767;DHT22;15921;52.034;20.650;2024-02-15T12:42:45;13.00;96.50
28767;DHT22;15921;52.034;20.650;2024-02-15T12:45:18;13.10;96.60
28767;DHT22;15921;52.034;20.650;2024-02-15T12:47:48;13.10;96.70
28767;DHT22;15921;52.034;20.650;2024-02-15T12:50:16;13.30;96.50
28767;DHT22;15921;52.034;20.650;2024-02-15T12:52:45;13.50;96.00
28767;DHT22;15921;52.034;20.650;2024-02-15T12:57:39;13.80;95.10
28767;DHT22;15921;52.034;20.650;2024-02-15T13:00:10;14.00;94.80
28767;DHT22;15921;52.034;20.650;2024-02-15T13:02:39;14.10;94.40
28767;DHT22;15921;52.034;20.650;2024-02-15T13:05:05;14.30;93.80
28767;DHT22;15921;52.034;20.650;2024-02-15T13:07:36;14.60;93.50
28767;DHT22;15921;52.034;20.650;2024-02-15T13:10:03;14.80;92.60
28767;DHT22;15921;52.034;20.650;2024-02-15T13:12:33;14.90;92.00
28767;DHT22;15921;52.034;20.650;2024-02-15T13:15:04;15.00;91.20
28767;DHT22;15921;52.034;20.650;2024-02-15T13:17:32;15.00;91.10
28767;DHT22;15921;52.034;20.650;2024-02-15T13:19:59;14.80;90.60
28767;DHT22;15921;52.034;20.650;2024-02-15T13:22:36;14.40;91.20
28767;DHT22;15921;52.034;20.650;2024-02-15T13:25:07;14.20;91.90
28767;DHT22;15921;52.034;20.650;2024-02-15T13:27:35;14.00;92.00
28767;DHT22;15921;52.034;20.650;2024-02-15T13:30:04;13.80;92.40
28767;DHT22;15921;52.034;20.650;2024-02-15T13:32:36;13.80;92.80
28767;DHT22;15921;52.034;20.650;2024-02-15T13:35:11;13.80;93.10
28767;DHT22;15921;52.034;20.650;2024-02-15T13:37:50;13.80;93.30
28767;DHT22;15921;52.034;20.650;2024-02-15T13:40:26;13.70;93.10
28767;DHT22;15921;52.034;20.650;2024-02-15T13:42:57;13.40;93.40
28767;DHT22;15921;52.034;20.650;2024-02-15T13:45:40;13.30;94.00
28767;DHT22;15921;52.034;20.650;2024-02-15T13:48:06;13.20;94.30
28767;DHT22;15921;52.034;20.650;2024-02-15T13:50:35;13.20;94.70
28767;DHT22;15921;52.034;20.650;2024-02-15T13:53:01;13.30;95.00
28767;DHT22;15921;52.034;20.650;2024-02-15T13:55:27;13.30;95.00
28767;DHT22;15921;52.034;20.650;2024-02-15T13:57:54;13.20;95.00
28767;DHT22;15921;52.034;20.650;2024-02-15T14:00:23;13.20;95.40
28767;DHT22;15921;52.034;20.650;2024-02-15T14:02:56;13.20;95.70
28767;DHT22;15921;52.034;20.650;2024-02-15T14:05:24;13.10;95.80
28767;DHT22;15921;52.034;20.650;2024-02-15T14:07:54;13.10;96.00
28767;DHT22;15921;52.034;20.650;2024-02-15T14:10:24;13.10;96.30
28767;DHT22;15921;52.034;20.650;2024-02-15T14:12:52;13.10;96.50
28767;DHT22;15921;52.034;20.650;2024-02-15T14:15:18;13.00;96.80
28767;DHT22;15921;52.034;20.650;2024-02-15T14:17:45;12.90;97.30
28767;DHT22;15921;52.034;20.650;2024-02-15T14:20:11;12.90;97.70
28767;DHT22;15921;52.034;20.650;2024-02-15T14:22:41;12.80;98.00
28767;DHT22;15921;52.034;20.650;2024-02-15T14:25:07;12.80;98.30
28767;DHT22;15921;52.034;20.650;2024-02-15T14:27:33;12.70;98.30
28767;DHT22;15921;52.034;20.650;2024-02-15T14:29:59;12.60;98.00
28767;DHT22;15921;52.034;20.650;2024-02-15T14:32:45;12.50;97.80
28767;DHT22;15921;52.034;20.650;2024-02-15T14:35:26;12.40;98.10
28767;DHT22;15921;52.034;20.650;2024-02-15T14:37:53;12.40;98.00
28767;DHT22;15921;52.034;20.650;2024-02-15T14:40:21;12.30;98.90
28767;DHT22;15921;52.034;20.650;2024-02-15T14:42:47;12.30;99.30
28767;DHT22;15921;52.034;20.650;2024-02-15T14:45:12;12.30;99.80
28767;DHT22;15921;52.034;20.650;2024-02-15T14:47:38;12.30;99.90
28767;DHT22;15921;52.034;20.650;2024-02-15T14:50:04;12.30;99.90
28767;DHT22;15921;52.034;20.650;2024-02-15T14:52:36;12.30;99.90
28767;DHT22;15921;52.034;20.650;2024-02-15T14:55:05;12.30;99.90
28767;DHT22;15921;52.034;20.650;2024-02-15T14:57:36;12.30;99.90
28767;DHT22;15921;52.034;20.650;2024-02-15T15:00:04;12.20;99.90
28767;DHT22;15921;52.034;20.650;2024-02-15T15:02:37;12.20;99.90
28767;DHT22;15921;52.034;20.650;2024-02-15T15:05:02;12.20;99.90
28767;DHT22;15921;52.034;20.650;2024-02-15T15:07:47;12.20;99.90
28767;DHT22;15921;52.034;20.650;2024-02-15T15:10:31;12.20;99.90
28767;DHT22;15921;52.034;20.650;2024-02-15T15:13:15;12.10;99.90
28767;DHT22;15921;52.034;20.650;2024-02-15T15:15:41;12.10;99.90
28767;DHT22;15921;52.034;20.650;2024-02-15T15:18:07;12.00;99.90
28767;DHT22;15921;52.034;20.650;2024-02-15T15:20:36;12.00;99.90
28767;DHT22;15921;52.034;20.650;2024-02-15T15:23:03;11.80;99.90
28767;DHT22;15921;52.034;20.650;2024-02-15T15:25:30;11.80;99.90
28767;DHT22;15921;52.034;20.650;2024-02-15T15:27:56;11.70;99.90
28767;DHT22;15921;52.034;20.650;2024-02-15T15:30:22;11.70;99.90
28767;DHT22;15921;52.034;20.650;2024-02-15T15:32:48;11.60;99.90
28767;DHT22;15921;52.034;20.650;2024-02-15T15:35:16;11.50;99.90
28767;DHT22;15921;52.034;20.650;2024-02-15T15:37:46;11.40;99.90
28767;DHT22;15921;52.034;20.650;2024-02-15T15:40:13;11.40;99.90
28767;DHT22;15921;52.034;20.650;2024-02-15T15:42:42;11.30;99.90
28767;DHT22;15921;52.034;20.650;2024-02-15T15:45:09;11.30;99.90
28767;DHT22;15921;52.034;20.650;2024-02-15T15:47:35;11.30;99.90